Manchaug, MA (01526)

4:41 AM EDT on July 29, 2016 (GMT -0400)
Tucker Pd | | Change Station

Elev 482 ft 42.10 °N, 71.76 °W | Updated 10 seconds ago

Rain
Rain Mist
72.5 °F
Feels Like 72.5 °F
N
0.0
Wind Variable Wind from SSE
Gusts 0.0 mph

Today
High -- | Low -- °F
--% Chance of Precip.
Yesterday
High -- | Low -- °F
Precip. -- in
Pressure 29.88 in
Visibility 6.0 miles
Clouds Scattered Clouds 5000 ft
Mostly Cloudy 8000 ft
Overcast 10000 ft
Dew Point 71 °F
Humidity 95%
Rainfall 0.05 in
Snow Depth Not available.
5:37 AM 8:08 PM
Waning Crescent, 24% visible
METAR KORH 290754Z AUTO 29008KT 6SM RA BR SCT050 BKN080 OVC100 22/19 A2990 RMK AO2 SLP119 P0007 T02170194
Pressure 29.88 in
Visibility 6.0 miles
Clouds Scattered Clouds 5000 ft
Mostly Cloudy 8000 ft
Overcast 10000 ft
Dew Point 71 °F
Humidity 95%
Rainfall 0.05 in
Snow Depth Not available.
5:37 AM 8:08 PM
Waning Crescent, 24% visible
METAR KORH 290754Z AUTO 29008KT 6SM RA BR SCT050 BKN080 OVC100 22/19 A2990 RMK AO2 SLP119 P0007 T02170194

10-Day Weather Forecast

Almanac

Astronomy

Jul. 29, 2016 Rise Set
Actual Time
Civil Twilight
Nautical Twilight
Astronomical Twilight
Moon
Length of Visible Light
Length of Day
Tomorrow will be .
, % of the Moon is Illuminated

Today's Extremes

State Highs State Lows

Community

WunderPhotos

Upload Photos

1,928,300 photos uploaded!

WunderBlog® & News

Nearby

Air Quality

  Air Quality AQ Index Pollutant
Not available.

Snow Depth

Station Depth Elevation

Earthquake Activity

City Distance Mag. Time & Date
Minimum magnitude displayed is 2.5.

Coastal Water Temperatures

Place Temperature

Stations

Nearby Weather Stations

Station Location Temp. Windchill Dew Point Humidity Wind Precip. Elev Updated Type
                   

Watches & Warnings

There are currently no watches in effect.